createdAt,value
2022-11-29T00:01:43.497Z,22.65
2022-11-29T00:04:10.903Z,22.65
2022-11-29T00:06:38.829Z,22.98
2022-11-29T00:11:52.638Z,22.95
2022-11-29T00:14:21.908Z,27.02
2022-11-29T00:16:51.386Z,22.27
2022-11-29T00:19:18.794Z,22.48
2022-11-29T00:21:46.155Z,26.50
2022-11-29T00:24:13.551Z,28.42
2022-11-29T00:26:40.905Z,29.60
2022-11-29T00:29:08.545Z,30.17
2022-11-29T00:31:37.294Z,28.40
2022-11-29T00:34:06.839Z,27.23
2022-11-29T00:36:34.279Z,29.85
2022-11-29T00:39:01.684Z,26.02
2022-11-29T00:41:29.147Z,29.08
2022-11-29T00:43:56.519Z,26.00
2022-11-29T00:46:25.071Z,26.95
2022-11-29T00:48:53.790Z,25.60
2022-11-29T00:51:21.221Z,24.92
2022-11-29T00:53:48.710Z,22.27
2022-11-29T00:56:16.179Z,22.77
2022-11-29T00:58:43.692Z,26.52
2022-11-29T01:01:11.583Z,26.98
2022-11-29T01:06:08.874Z,20.20
2022-11-29T01:08:36.597Z,23.77
2022-11-29T01:11:05.528Z,22.52
2022-11-29T01:13:32.942Z,22.42
2022-11-29T01:16:00.338Z,21.60
2022-11-29T01:18:27.825Z,22.05
2022-11-29T01:20:59.119Z,22.98
2022-11-29T01:23:27.914Z,22.30
2022-11-29T01:25:58.915Z,19.25
2022-11-29T01:28:26.683Z,19.08
2022-11-29T01:30:54.392Z,14.68
2022-11-29T01:33:22.035Z,18.85
2022-11-29T01:35:49.717Z,16.83
2022-11-29T01:38:17.241Z,16.83
2022-11-29T01:40:46.266Z,16.98
2022-11-29T01:43:15.377Z,17.95
2022-11-29T01:45:42.831Z,16.73
2022-11-29T01:48:10.350Z,17.58
2022-11-29T01:50:38.326Z,16.08
2022-11-29T01:55:33.216Z,18.05
2022-11-29T02:00:29.537Z,15.60
2022-11-29T02:02:58.120Z,16.00
2022-11-29T02:05:27.591Z,18.90
2022-11-29T02:07:55.851Z,21.17
2022-11-29T02:10:26.811Z,19.00
2022-11-29T02:13:00.785Z,17.30
2022-11-29T02:15:35.027Z,20.77
2022-11-29T02:18:05.712Z,19.55
2022-11-29T02:20:53.932Z,20.05
2022-11-29T02:23:29.145Z,19.15
2022-11-29T02:26:01.554Z,17.60
2022-11-29T02:28:45.971Z,18.05
2022-11-29T02:31:28.178Z,19.15
2022-11-29T02:34:02.381Z,19.60
2022-11-29T02:36:37.565Z,21.45
2022-11-29T02:39:20.170Z,16.52
2022-11-29T02:41:52.687Z,16.73
2022-11-29T02:44:29.218Z,16.77
2022-11-29T02:47:04.130Z,16.17
2022-11-29T02:49:42.414Z,15.90
2022-11-29T02:52:12.532Z,16.65
2022-11-29T02:54:46.776Z,19.33
2022-11-29T02:57:19.011Z,17.42
2022-11-29T02:59:49.473Z,19.20
2022-11-29T03:02:21.132Z,18.80
2022-11-29T03:04:51.556Z,19.15
2022-11-29T03:07:24.531Z,19.45
2022-11-29T03:09:56.731Z,20.35
2022-11-29T03:12:28.999Z,20.15
2022-11-29T03:14:58.413Z,18.92
2022-11-29T03:17:32.888Z,19.95
2022-11-29T03:20:07.767Z,20.13
2022-11-29T03:22:41.046Z,20.95
2022-11-29T03:25:09.879Z,19.60
2022-11-29T03:27:39.367Z,22.73
2022-11-29T03:30:09.885Z,19.92
2022-11-29T03:32:41.049Z,21.83
2022-11-29T03:35:13.621Z,20.80
2022-11-29T03:37:44.970Z,21.67
2022-11-29T03:40:13.668Z,23.52
2022-11-29T03:42:44.023Z,20.92
2022-11-29T03:45:15.261Z,21.30
2022-11-29T03:47:45.009Z,19.40
2022-11-29T03:50:15.633Z,22.30
2022-11-29T03:52:45.993Z,22.00
2022-11-29T03:55:26.410Z,23.00
2022-11-29T03:58:04.654Z,22.85
2022-11-29T04:00:36.463Z,25.08
2022-11-29T04:03:27.355Z,23.85
2022-11-29T04:06:01.246Z,27.83
2022-11-29T04:08:42.881Z,24.60
2022-11-29T04:11:28.278Z,22.23
2022-11-29T04:14:03.961Z,24.48
2022-11-29T04:16:46.205Z,25.20
2022-11-29T04:19:32.458Z,21.45
2022-11-29T04:22:08.194Z,23.38
2022-11-29T04:25:05.663Z,29.15
2022-11-29T04:30:06.851Z,33.47
2022-11-29T04:32:45.682Z,29.88
2022-11-29T04:35:21.261Z,24.20
2022-11-29T04:38:06.677Z,24.13
2022-11-29T04:40:45.334Z,23.52
2022-11-29T04:43:20.424Z,27.13
2022-11-29T04:45:58.570Z,24.70
2022-11-29T04:48:40.515Z,22.67
2022-11-29T04:51:13.816Z,22.02
2022-11-29T04:53:48.798Z,23.55
2022-11-29T04:56:21.355Z,20.73
2022-11-29T04:58:52.783Z,22.13
2022-11-29T05:01:23.247Z,21.92
2022-11-29T05:03:56.842Z,22.10
2022-11-29T05:06:28.615Z,22.20
2022-11-29T05:09:00.814Z,21.63
2022-11-29T05:11:36.947Z,22.35
2022-11-29T05:14:06.965Z,21.92
2022-11-29T05:16:43.503Z,21.60
2022-11-29T05:19:26.138Z,24.38
2022-11-29T05:22:00.147Z,22.80
2022-11-29T05:24:40.118Z,20.50
2022-11-29T05:27:13.368Z,24.38
2022-11-29T05:29:42.342Z,24.10
2022-11-29T05:32:21.400Z,24.70
2022-11-29T05:34:58.966Z,23.63
2022-11-29T05:37:31.021Z,23.23
2022-11-29T05:40:04.977Z,23.73
2022-11-29T05:42:41.276Z,23.88
2022-11-29T05:45:10.739Z,22.30
2022-11-29T05:47:42.126Z,24.02
2022-11-29T05:50:12.171Z,21.63
2022-11-29T05:52:44.718Z,22.45
2022-11-29T05:55:19.569Z,22.55
2022-11-29T05:57:53.860Z,22.85
2022-11-29T06:00:21.685Z,23.58
2022-11-29T06:02:52.871Z,23.95
2022-11-29T06:05:25.452Z,24.05
2022-11-29T06:07:54.762Z,24.30
2022-11-29T06:10:24.119Z,26.27
2022-11-29T06:12:58.095Z,25.92
2022-11-29T06:15:33.451Z,24.33
2022-11-29T06:18:09.471Z,23.73
2022-11-29T06:20:44.365Z,21.77
2022-11-29T06:23:18.486Z,20.27
2022-11-29T06:25:53.186Z,24.35
2022-11-29T06:28:27.631Z,23.13
2022-11-29T06:31:00.502Z,25.08
2022-11-29T06:33:32.203Z,22.17
2022-11-29T06:36:08.250Z,21.45
2022-11-29T06:38:35.802Z,22.08
2022-11-29T06:41:03.366Z,24.33
2022-11-29T06:43:33.504Z,22.52
2022-11-29T06:46:04.176Z,23.90
2022-11-29T06:48:35.601Z,22.75
2022-11-29T06:51:07.030Z,21.58
2022-11-29T06:53:38.063Z,22.65
2022-11-29T06:56:09.186Z,23.75
2022-11-29T06:58:42.729Z,23.23
2022-11-29T07:01:17.524Z,24.13
2022-11-29T07:03:55.726Z,23.25
2022-11-29T07:06:24.040Z,22.60
2022-11-29T07:08:53.319Z,27.55
2022-11-29T07:11:21.011Z,23.55
2022-11-29T07:13:50.041Z,23.50
2022-11-29T07:16:22.568Z,22.92
2022-11-29T07:18:54.102Z,22.55
2022-11-29T07:21:26.878Z,20.33
2022-11-29T07:24:00.729Z,22.83
2022-11-29T07:26:31.942Z,22.58
2022-11-29T07:29:05.803Z,22.20
2022-11-29T07:31:39.514Z,22.40
2022-11-29T07:34:12.583Z,22.23
2022-11-29T07:36:45.238Z,22.50
2022-11-29T07:39:20.756Z,18.77
2022-11-29T07:41:54.128Z,21.63
2022-11-29T07:44:27.129Z,20.45
2022-11-29T07:46:54.549Z,19.02
2022-11-29T07:49:21.946Z,20.30
2022-11-29T07:51:49.493Z,19.13
2022-11-29T07:54:18.733Z,18.58
2022-11-29T07:56:46.123Z,20.10
2022-11-29T07:59:14.472Z,18.00
2022-11-29T08:01:43.290Z,21.23
2022-11-29T08:04:10.767Z,19.35
2022-11-29T08:06:38.235Z,17.55
2022-11-29T08:09:06.748Z,19.45
2022-11-29T08:11:34.384Z,20.50
2022-11-29T08:14:02.511Z,19.35
2022-11-29T08:16:30.048Z,20.10
2022-11-29T08:18:58.869Z,19.33
2022-11-29T08:21:26.257Z,19.67
2022-11-29T08:23:53.681Z,18.70
2022-11-29T08:26:24.365Z,19.80
2022-11-29T08:28:54.190Z,19.90
2022-11-29T08:31:21.870Z,19.80
2022-11-29T08:33:49.401Z,19.40
2022-11-29T08:36:19.120Z,19.63
2022-11-29T08:38:46.512Z,18.23
2022-11-29T08:41:14.929Z,21.40
2022-11-29T08:43:42.639Z,18.83
2022-11-29T08:46:13.883Z,19.80
2022-11-29T08:48:45.758Z,18.65
2022-11-29T08:51:13.192Z,16.70
2022-11-29T08:53:45.922Z,19.20
2022-11-29T08:56:53.288Z,19.13
2022-11-29T08:59:01.558Z,21.92
2022-11-29T09:01:29.915Z,17.48
2022-11-29T09:04:00.232Z,18.10
2022-11-29T09:06:27.930Z,18.50
2022-11-29T09:08:57.218Z,18.55
2022-11-29T09:11:25.394Z,18.98
2022-11-29T09:13:54.060Z,19.75
2022-11-29T09:16:23.182Z,20.65
2022-11-29T09:18:52.140Z,20.50
2022-11-29T09:21:19.812Z,20.27
2022-11-29T09:23:47.450Z,20.35
2022-11-29T09:26:19.653Z,21.02
2022-11-29T09:28:47.285Z,18.98
2022-11-29T09:31:16.119Z,17.88
2022-11-29T09:33:43.563Z,17.55
2022-11-29T09:36:11.662Z,15.88
2022-11-29T09:38:39.239Z,18.02
2022-11-29T09:41:12.722Z,19.10
2022-11-29T09:43:45.546Z,18.05
2022-11-29T09:46:18.086Z,17.25
2022-11-29T09:49:06.480Z,17.25
2022-11-29T09:51:43.934Z,16.52
2022-11-29T09:56:40.364Z,18.10
2022-11-29T09:59:12.528Z,20.48
2022-11-29T10:01:41.644Z,20.40
2022-11-29T10:04:11.913Z,20.20
2022-11-29T10:06:40.843Z,20.55
2022-11-29T10:09:14.692Z,20.65
2022-11-29T10:11:44.606Z,19.00
2022-11-29T10:14:15.592Z,19.63
2022-11-29T10:16:45.537Z,23.92
2022-11-29T10:19:18.335Z,19.27
2022-11-29T10:21:49.602Z,21.10
2022-11-29T10:24:20.233Z,22.00
2022-11-29T10:26:47.660Z,21.92
2022-11-29T10:29:17.070Z,21.27
2022-11-29T10:31:46.716Z,23.58
2022-11-29T10:34:15.329Z,26.10
2022-11-29T10:36:44.232Z,24.45
2022-11-29T10:39:14.903Z,23.65
2022-11-29T10:41:42.401Z,25.73
2022-11-29T10:44:11.680Z,25.30
2022-11-29T10:46:40.983Z,25.75
2022-11-29T10:49:11.955Z,24.35
2022-11-29T10:51:39.815Z,25.25
2022-11-29T10:56:37.621Z,28.33
2022-11-29T10:59:09.132Z,29.77
2022-11-29T11:01:38.340Z,27.52
2022-11-29T11:04:10.716Z,25.55
2022-11-29T11:06:45.954Z,29.17
2022-11-29T11:09:15.281Z,29.25
2022-11-29T11:11:50.546Z,29.08
2022-11-29T11:14:20.713Z,26.02
2022-11-29T11:16:48.155Z,24.95
2022-11-29T11:19:28.254Z,25.75
2022-11-29T11:21:56.131Z,27.60
2022-11-29T11:24:25.114Z,28.23
2022-11-29T11:26:52.658Z,31.80
2022-11-29T11:29:21.927Z,31.83
2022-11-29T11:31:52.987Z,31.13
2022-11-29T11:34:29.958Z,30.88
2022-11-29T11:37:14.064Z,29.33
2022-11-29T11:39:41.862Z,29.88
2022-11-29T11:42:29.626Z,29.15
2022-11-29T11:44:57.251Z,28.40
2022-11-29T11:47:27.031Z,27.73
2022-11-29T11:49:57.374Z,27.38
2022-11-29T11:52:25.784Z,26.92
2022-11-29T11:54:55.151Z,26.05
2022-11-29T11:57:22.957Z,28.20
2022-11-29T11:59:50.578Z,27.67
2022-11-29T12:02:25.499Z,28.77
2022-11-29T12:04:53.646Z,30.13
2022-11-29T12:07:45.012Z,32.00
2022-11-29T12:10:18.298Z,32.15
2022-11-29T12:12:46.708Z,34.55
2022-11-29T12:15:18.206Z,30.52
2022-11-29T12:17:49.016Z,30.58
2022-11-29T12:20:19.903Z,33.45
2022-11-29T12:22:56.668Z,32.13
2022-11-29T12:25:25.331Z,31.13
2022-11-29T12:27:52.808Z,33.10
2022-11-29T12:30:20.801Z,32.85
2022-11-29T12:35:32.320Z,31.65
2022-11-29T12:38:05.204Z,33.05
2022-11-29T12:40:36.615Z,30.80
2022-11-29T12:43:09.739Z,30.60
2022-11-29T12:45:41.678Z,33.38
2022-11-29T12:48:19.623Z,30.20
2022-11-29T12:50:52.831Z,30.73
2022-11-29T12:53:29.650Z,29.58
2022-11-29T12:56:03.054Z,29.85
2022-11-29T12:58:33.860Z,30.48
2022-11-29T13:01:04.772Z,31.13
2022-11-29T13:03:34.995Z,30.63
2022-11-29T13:06:08.148Z,30.88
2022-11-29T13:08:46.325Z,31.67
2022-11-29T13:11:18.943Z,34.58
2022-11-29T13:13:48.548Z,29.92
2022-11-29T13:16:23.955Z,30.48
2022-11-29T13:18:58.015Z,32.92
2022-11-29T13:21:28.127Z,33.42
2022-11-29T13:24:09.095Z,32.22
2022-11-29T13:26:37.653Z,32.83
2022-11-29T13:31:33.284Z,32.00
2022-11-29T13:34:05.051Z,32.10
2022-11-29T13:36:41.029Z,33.92
2022-11-29T13:39:24.637Z,31.42
2022-11-29T13:41:56.208Z,33.83
2022-11-29T13:44:28.666Z,33.47
2022-11-29T13:47:03.531Z,32.25
2022-11-29T13:49:45.779Z,31.67
2022-11-29T13:52:24.244Z,31.38
2022-11-29T13:55:04.087Z,32.08
2022-11-29T13:58:14.421Z,31.65
2022-11-29T14:00:36.311Z,32.03
2022-11-29T14:03:22.351Z,29.05
2022-11-29T14:05:50.517Z,30.42
2022-11-29T14:08:24.843Z,31.10
2022-11-29T14:10:53.976Z,28.98
2022-11-29T14:13:22.974Z,29.73
2022-11-29T14:15:54.935Z,28.63
2022-11-29T14:18:47.512Z,29.42
2022-11-29T14:21:14.914Z,27.05
2022-11-29T14:23:42.485Z,30.27
2022-11-29T14:26:29.060Z,26.83
2022-11-29T14:28:56.999Z,27.40
2022-11-29T14:31:43.198Z,25.30
2022-11-29T14:34:13.750Z,24.73
2022-11-29T14:36:46.383Z,25.65
2022-11-29T14:39:27.166Z,27.55
2022-11-29T14:42:01.922Z,26.95
2022-11-29T14:44:29.853Z,28.88
2022-11-29T14:49:25.488Z,27.38
2022-11-29T14:52:11.611Z,29.85
2022-11-29T14:54:54.592Z,29.33
2022-11-29T14:57:37.516Z,28.08
2022-11-29T15:00:10.861Z,25.92
2022-11-29T15:02:40.404Z,27.35
2022-11-29T15:05:13.180Z,28.67
2022-11-29T15:07:44.192Z,27.27
2022-11-29T15:10:17.728Z,27.50
2022-11-29T15:12:45.758Z,26.67
2022-11-29T15:15:21.763Z,27.90
2022-11-29T15:17:53.169Z,25.90
2022-11-29T15:20:31.776Z,27.52
2022-11-29T15:23:00.921Z,26.65
2022-11-29T15:25:30.891Z,27.40
2022-11-29T15:27:59.384Z,28.55
2022-11-29T15:30:33.901Z,26.75
2022-11-29T15:33:02.670Z,27.45
2022-11-29T15:35:30.142Z,26.77
2022-11-29T15:37:57.641Z,24.40
2022-11-29T15:40:31.205Z,26.95
2022-11-29T15:43:01.923Z,25.95
2022-11-29T15:45:31.155Z,26.48
2022-11-29T15:48:13.670Z,28.40
2022-11-29T15:50:43.791Z,29.75
2022-11-29T15:53:16.086Z,31.73
2022-11-29T15:55:43.567Z,30.98
2022-11-29T15:58:13.011Z,27.58
2022-11-29T16:00:41.013Z,26.40
2022-11-29T16:03:13.453Z,24.05
2022-11-29T16:05:42.322Z,24.08
2022-11-29T16:08:14.249Z,28.33
2022-11-29T16:10:43.490Z,25.45
2022-11-29T16:13:30.953Z,24.80
2022-11-29T16:16:05.508Z,26.27
2022-11-29T16:18:33.099Z,23.27
2022-11-29T16:21:02.303Z,24.33
2022-11-29T16:23:34.133Z,23.42
2022-11-29T16:26:02.957Z,25.27
2022-11-29T16:28:32.708Z,22.40
2022-11-29T16:31:00.614Z,24.80
2022-11-29T16:36:05.477Z,22.00
2022-11-29T16:38:32.934Z,22.92
2022-11-29T16:41:05.090Z,24.15
2022-11-29T16:43:53.717Z,22.85
2022-11-29T16:46:30.040Z,22.73
2022-11-29T16:48:58.299Z,23.70
2022-11-29T16:51:27.819Z,23.38
2022-11-29T16:53:55.744Z,23.88
2022-11-29T16:56:24.203Z,23.88
2022-11-29T16:59:17.351Z,22.27
2022-11-29T17:01:40.885Z,21.42
2022-11-29T17:04:09.559Z,23.00
2022-11-29T17:06:38.836Z,22.35
2022-11-29T17:09:06.389Z,24.40
2022-11-29T17:11:33.791Z,23.05
2022-11-29T17:14:01.209Z,25.67
2022-11-29T17:16:28.682Z,24.08
2022-11-29T17:18:56.168Z,22.02
2022-11-29T17:21:24.252Z,22.08
2022-11-29T17:23:53.325Z,23.00
2022-11-29T17:26:21.305Z,24.77
2022-11-29T17:28:49.166Z,24.67
2022-11-29T17:31:17.201Z,21.83
2022-11-29T17:33:44.710Z,22.58
2022-11-29T17:36:15.068Z,24.55
2022-11-29T17:38:42.800Z,22.55
2022-11-29T17:41:12.924Z,22.25
2022-11-29T17:43:40.851Z,24.42
2022-11-29T17:48:35.671Z,23.60
2022-11-29T17:51:07.015Z,23.25
2022-11-29T17:56:08.991Z,22.02
2022-11-29T17:58:38.319Z,22.67
2022-11-29T18:01:06.638Z,22.95
2022-11-29T18:03:38.567Z,23.25
2022-11-29T18:06:06.628Z,23.35
2022-11-29T18:08:37.594Z,24.38
2022-11-29T18:11:05.778Z,25.20
2022-11-29T18:13:33.171Z,26.23
2022-11-29T18:16:06.787Z,25.27
2022-11-29T18:18:34.422Z,25.02
2022-11-29T18:21:02.184Z,26.27
2022-11-29T18:23:30.075Z,25.42
2022-11-29T18:28:24.764Z,28.88
2022-11-29T18:30:52.168Z,28.35
2022-11-29T18:33:21.223Z,28.52
2022-11-29T18:35:48.606Z,28.42
2022-11-29T18:38:16.646Z,29.27
2022-11-29T18:40:45.481Z,31.65
2022-11-29T18:43:13.091Z,31.30
2022-11-29T18:45:40.549Z,30.52
2022-11-29T18:48:08.001Z,31.42
2022-11-29T18:50:36.707Z,32.70
2022-11-29T18:53:04.102Z,31.25
2022-11-29T18:55:31.509Z,32.72
2022-11-29T18:57:58.912Z,33.20
2022-11-29T19:00:26.331Z,32.83
2022-11-29T19:02:53.973Z,34.08
2022-11-29T19:05:21.369Z,33.38
2022-11-29T19:07:50.117Z,32.97
2022-11-29T19:10:17.637Z,33.90
2022-11-29T19:12:45.023Z,34.15
2022-11-29T19:15:12.431Z,31.13
2022-11-29T19:17:43.132Z,32.80
2022-11-29T19:20:11.895Z,32.20
2022-11-29T19:22:39.259Z,32.75
2022-11-29T19:25:08.938Z,32.08
2022-11-29T19:27:36.271Z,30.75
2022-11-29T19:30:03.711Z,32.75
2022-11-29T19:32:31.066Z,32.83
2022-11-29T19:34:58.423Z,30.65
2022-11-29T19:37:25.775Z,29.65
2022-11-29T19:39:53.152Z,29.48
2022-11-29T19:42:22.050Z,29.00
2022-11-29T19:45:17.722Z,28.50
2022-11-29T19:47:36.719Z,30.58
2022-11-29T19:50:04.132Z,31.08
2022-11-29T19:52:31.558Z,30.92
2022-11-29T19:54:59.594Z,28.88
2022-11-29T19:57:28.869Z,29.48
2022-11-29T19:59:56.233Z,31.10
2022-11-29T20:02:23.737Z,29.98
2022-11-29T20:04:51.712Z,32.95
2022-11-29T20:09:46.640Z,31.88
2022-11-29T20:12:14.179Z,30.88
2022-11-29T20:14:42.887Z,33.80
2022-11-29T20:17:10.265Z,33.75
2022-11-29T20:19:37.702Z,36.35
2022-11-29T20:22:05.098Z,36.15
2022-11-29T20:24:39.040Z,39.67
2022-11-29T20:27:08.733Z,38.05
2022-11-29T20:29:37.003Z,41.58
2022-11-29T20:32:05.977Z,39.78
2022-11-29T20:34:33.509Z,38.33
2022-11-29T20:37:13.012Z,42.70
2022-11-29T20:39:43.223Z,40.38
2022-11-29T20:42:19.474Z,40.10
2022-11-29T20:44:49.654Z,40.40
2022-11-29T20:47:19.518Z,39.50
2022-11-29T20:49:47.129Z,39.95
2022-11-29T20:52:20.314Z,39.00
2022-11-29T20:54:47.720Z,39.42
2022-11-29T20:57:15.105Z,39.10
2022-11-29T20:59:42.457Z,40.50
2022-11-29T21:02:09.866Z,41.67
2022-11-29T21:04:38.568Z,41.58
2022-11-29T21:07:05.910Z,42.78
2022-11-29T21:09:33.814Z,45.58
2022-11-29T21:14:28.619Z,42.25
2022-11-29T21:16:56.247Z,42.70
2022-11-29T21:19:25.265Z,43.28
2022-11-29T21:21:59.323Z,40.67
2022-11-29T21:24:32.792Z,44.15
2022-11-29T21:27:00.209Z,43.47
2022-11-29T21:29:27.822Z,44.88
2022-11-29T21:31:55.707Z,43.60
2022-11-29T21:36:54.070Z,46.38
2022-11-29T21:39:25.392Z,44.67
2022-11-29T21:41:52.731Z,44.97
2022-11-29T21:44:20.094Z,43.00
2022-11-29T21:46:47.486Z,44.80
2022-11-29T21:49:14.908Z,44.08
2022-11-29T21:51:42.621Z,46.45
2022-11-29T21:54:09.969Z,44.85
2022-11-29T21:56:38.663Z,45.28
2022-11-29T21:59:06.091Z,47.33
2022-11-29T22:01:33.993Z,44.38
2022-11-29T22:06:29.311Z,44.90
2022-11-29T22:08:56.949Z,45.88
2022-11-29T22:11:31.674Z,45.33
2022-11-29T22:14:17.810Z,46.35
2022-11-29T22:16:46.264Z,45.15
2022-11-29T22:19:14.422Z,47.15
2022-11-29T22:21:42.113Z,46.78
2022-11-29T22:24:09.823Z,46.45
2022-11-29T22:26:37.454Z,45.97
2022-11-29T22:29:06.547Z,44.47
2022-11-29T22:31:35.173Z,44.78
2022-11-29T22:34:02.791Z,43.78
2022-11-29T22:36:30.159Z,42.65
2022-11-29T22:38:57.498Z,44.70
2022-11-29T22:41:25.574Z,42.78
2022-11-29T22:43:53.281Z,41.58
2022-11-29T22:46:23.068Z,42.90
2022-11-29T22:48:52.382Z,40.85
2022-11-29T22:51:20.728Z,42.13
2022-11-29T22:53:49.528Z,42.08
2022-11-29T22:56:16.903Z,44.03
2022-11-29T22:58:45.082Z,42.75
2022-11-29T23:01:13.860Z,42.35
2022-11-29T23:03:43.827Z,44.78
2022-11-29T23:06:12.031Z,45.35
2022-11-29T23:08:40.247Z,45.45
2022-11-29T23:11:08.720Z,45.75
2022-11-29T23:13:37.180Z,45.05
2022-11-29T23:16:05.881Z,45.38
2022-11-29T23:18:33.575Z,45.97
2022-11-29T23:21:02.992Z,47.58
2022-11-29T23:23:30.799Z,45.85
2022-11-29T23:25:58.564Z,44.63
2022-11-29T23:30:54.203Z,44.72
2022-11-29T23:33:22.019Z,45.05
2022-11-29T23:38:18.715Z,45.60
2022-11-29T23:40:46.058Z,48.35
2022-11-29T23:43:14.410Z,47.17
2022-11-29T23:45:42.241Z,48.22
2022-11-29T23:48:09.663Z,49.60
2022-11-29T23:50:36.995Z,50.80
2022-11-29T23:53:04.829Z,51.80
2022-11-29T23:55:33.579Z,48.92
2022-11-29T23:58:01.364Z,48.15
